x

Galveston,tx - 22 Nm East Of Galveston, Tx (42035) Wave Buoy

10:50pm - Sun 30th Apr 2017 All times are CDT. -5 hours from GMT.

  • Sig Wave height 3.3ft
  • Peak Period 10s
  • Wind
    4mph
  • Sea Temp 75°f
  • Air Temp 71°f
  • Sea Pressure 1015.1mb
  • Galveston,tx -  22 Nm East Of Galveston, Tx
  • Galveston,tx -  22 Nm East Of Galveston, Tx

More Historic Weather Station data

Upgrade to MSW Pro to gain access to the past 30 days of data for over 8000 Wavebouys and Weather Stations around the globe.

Join Pro

Comparision Forecast

View Surf forecast
   
Sun 04/30 10:50pm 3.5ft 10s  -  4
mph
1015.1mb 75f 71f
9:50pm 3.5ft 10s 8s 4 7 mph 1014.6mb 75f 71f
8:50pm 4ft 10s 8s 7
mph
1013.7mb 76f 71f
7:50pm 3.5ft 9s 7s 9 11 mph 1013mb 76f 71f
6:50pm 4ft 10s 8s 7 9 mph 1012.7mb 76f 71f
5:50pm 4ft 10s 7s 11 16 mph 1012.4mb 76f 70f
4:50pm 3.5ft 10s 7s 9 11 mph 1012.7mb 76f 69f
3:50pm 3.5ft 10s 7s 13 18 mph 1012.8mb 76f 68f
2:50pm 3.5ft 10s 6s 11 16 mph 1013.2mb 76f 66f
1:50pm 4ft 10s 5s 16 20 mph 1013.3mb 75f 67f
12:50pm 4.5ft 10s 5s 18 20 mph 1013.5mb 75f 66f
11:50am 4.5ft 10s 6s 18 22 mph 1013.5mb 75f 66f
10:50am 4.5ft 10s 5s 16 22 mph 1012.8mb 75f 65f
9:50am 5ft 9s 5s 22 29 mph 1011.3mb 75f 66f
6:50am 6ft 9s 5s 27 34 mph 1008.3mb 76f 68f
5:50am 7ft 10s 5s 29 36 mph 1008mb 76f 69f
4:50am 7ft 9s 5s 31 40 mph 1007.8mb 76f 67f
3:50am 6.5ft 9s 7s 31 40 mph 1005.8mb 76f 68f
2:50am 7ft 10s 7s 11
mph
1006.1mb 76f 78f
1:50am 7ft 9s 6s 4 7 mph 1007.4mb 76f 77f
12:50am 7ft 10s 6s 2 7 mph 1007.4mb 76f 77f
Sat 04/29 11:50pm 8ft 10s 6s 11 16 mph 1006.2mb 76f 78f
10:50pm 7.5ft 9s 6s 20 25 mph 1004.6mb 76f 78f
9:50pm 7ft 9s 6s 22 27 mph 1003.9mb 76f 78f
7:50pm 7ft 10s 6s 20 25 mph 1002.8mb 76f 78f
6:50pm 7ft 9s 6s 20 25 mph 1003.4mb 76f 78f
5:50pm 7ft 9s 6s 18 22 mph 1003.8mb 76f 78f
4:50pm 8ft 9s 6s 22 27 mph 1003.4mb 76f 78f
3:50pm 8ft 9s 6s 22 29 mph 1003.5mb 76f 78f
2:50pm 8ft 8s 6s 27 31 mph 1003.4mb 76f 78f
1:50pm 8ft 8s 6s 27 31 mph 1003.9mb 76f 78f
12:50pm 8.5ft 9s 6s 25 31 mph 1005mb 76f 78f
11:50am 9ft 8s 6s 27 31 mph 1005.3mb 76f 78f
10:50am 8ft 8s 6s 27 34 mph 1005mb 76f 78f
9:50am 7ft 7s 5s 27 34 mph 1005.5mb 76f 78f
8:50am 7ft 8s 5s 27 31 mph 1005.6mb 76f 78f
7:50am 7ft 8s 5s 27 34 mph 1005.3mb 76f 77f
6:50am 6ft 6s 5s 27 34 mph 1004.9mb 76f 77f
5:50am 5ft 6s 5s 27 31 mph 1004.8mb 76f 77f
4:50am 5.5ft 7s 5s 27 31 mph 1004.7mb 76f 77f
3:50am 5ft 7s 5s 22 27 mph 1005.5mb 76f 77f
2:50am 5ft 8s 5s 22 25 mph 1005.9mb 76f 77f
1:50am 5ft 8s 5s 20 25 mph 1006.8mb 76f 77f
12:50am 5ft 8s 5s 20 25 mph 1006.9mb 76f 77f
Fri 04/28 11:50pm 5ft 8s 5s 20 22 mph 1007mb 76f 77f
10:50pm 4.5ft 8s 5s 18 22 mph 1007mb 76f 77f
9:50pm 5ft 8s 5s 20 25 mph 1006.3mb 76f 77f
8:50pm 4.5ft 8s 5s 20 22 mph 1005.5mb 76f 77f
7:50pm 4.5ft 8s 5s 20 22 mph 1005.1mb 76f 77f
6:50pm 4.5ft 8s 5s 16 18 mph 1005mb 76f 77f
5:50pm 4.5ft 8s 5s 13 16 mph 1005.2mb 76f 77f
4:50pm 4ft 8s 5s 16 18 mph 1005mb 76f 77f
3:50pm 4ft 8s 5s 16 18 mph 1005.2mb 76f 77f
2:50pm 4ft 7s 5s 13 16 mph 1005.8mb 76f 77f
1:50pm 3.5ft 7s 5s 11 16 mph 1005.8mb 76f 77f
12:50pm 3.5ft 7s 5s 13 16 mph 1006.4mb 76f 77f
11:50am 3.5ft 7s 5s 13 16 mph 1006.6mb 75f 77f
10:50am 3.5ft 6s 5s 11 13 mph 1006.5mb 75f 77f
9:50am 3.5ft 6s 5s 13 16 mph 1006.4mb 75f 76f
8:50am 3.5ft 7s 5s 13 16 mph 1005.9mb 75f 77f
6:50am 3.5ft 7s  -  16 20 mph 1004.7mb 75f 77f
5:50am 3.5ft 6s 4s 18 20 mph 1004.3mb 75f 77f
4:50am 3.5ft 6s 4s 16 18 mph 1003.7mb 75f 76f
3:50am 3.5ft 5s 4s 16 20 mph 1003.5mb 75f 76f
2:50am 3.5ft 5s 4s 13 16 mph 1003.7mb 75f 76f
1:50am 3.5ft 5s 4s 13 16 mph 1004.4mb 75f 76f
12:50am 3.5ft 4s 4s 13 16 mph 1004.6mb 75f 75f
Thu 04/27 11:50pm 3.5ft 5s 4s 16 18 mph 1005mb 75f 75f
10:50pm 3.5ft 4s 4s 20 25 mph 1004.6mb 75f 74f
9:50pm 3ft 4s 4s 18 20 mph 1005.7mb 75f 74f
8:50pm 3ft 7s 4s 18 20 mph 1005.9mb 75f 74f
6:50pm 2.5ft 8s 4s 13 18 mph 1005.7mb 75f 72f
5:50pm 2.5ft 8s 4s 16 18 mph 1005.8mb 75f 72f
4:50pm 2.5ft 7s 4s 18 22 mph 1005.8mb 75f 71f
3:50pm 2.5ft 7s 4s 13 18 mph 1006.8mb 75f 70f
2:50pm 2.5ft 7s 4s 13 16 mph 1008.2mb 75f 69f
1:50pm 2.5ft 7s 4s 13 16 mph 1008.8mb 75f 68f
12:50pm 3ft 7s 4s 16 20 mph 1009.6mb 75f 67f
11:50am 3.5ft 8s 4s 16 20 mph 1009.9mb 75f 66f
10:50am 3.5ft 4s 4s 18 20 mph 1010mb 75f 65f
9:50am 3.5ft 7s 4s 18 22 mph 1010mb 75f 65f
8:50am 3ft 4s 4s 18 22 mph 1010.1mb 75f 64f
7:50am 3.5ft 5s 4s 18 22 mph 1009.6mb 75f 62f
6:50am 3.5ft 7s 4s 18 22 mph 1009.2mb 75f 62f
5:50am 4ft 4s 4s 20 25 mph 1008.6mb 75f 62f